createdAt,value
2023-02-19T00:01:13.200Z,100562.44
2023-02-19T00:03:39.709Z,100567.72
2023-02-19T00:06:06.779Z,100566.00
2023-02-19T00:08:33.454Z,100568.56
2023-02-19T00:11:00.810Z,100561.56
2023-02-19T00:13:27.194Z,100555.44
2023-02-19T00:15:53.623Z,100563.34
2023-02-19T00:18:20.089Z,100558.94
2023-02-19T00:20:46.499Z,100566.84
2023-02-19T00:23:12.872Z,100554.56
2023-02-19T00:25:39.264Z,100555.44
2023-02-19T00:28:05.663Z,100550.19
2023-02-19T00:30:32.245Z,100548.41
2023-02-19T00:32:58.732Z,100549.28
2023-02-19T00:35:25.215Z,100553.72
2023-02-19T00:37:54.051Z,100551.06
2023-02-19T00:40:20.476Z,100538.78
2023-02-19T00:42:46.890Z,100544.06
2023-02-19T00:45:13.297Z,100535.22
2023-02-19T00:47:39.842Z,100543.16
2023-02-19T00:50:06.261Z,100543.19
2023-02-19T00:52:32.657Z,100542.31
2023-02-19T00:54:59.165Z,100546.69
2023-02-19T00:57:25.614Z,100552.91
2023-02-19T00:59:52.015Z,100549.41
2023-02-19T01:02:18.480Z,100557.34
2023-02-19T01:04:44.982Z,100572.28
2023-02-19T01:07:14.224Z,100555.63
2023-02-19T01:09:40.678Z,100559.16
2023-02-19T01:12:07.086Z,100555.66
2023-02-19T01:14:33.491Z,100553.00
2023-02-19T01:16:59.891Z,100553.00
2023-02-19T01:19:26.276Z,100539.84
2023-02-19T01:21:52.678Z,100553.00
2023-02-19T01:24:19.134Z,100540.72
2023-02-19T01:26:45.553Z,100550.44
2023-02-19T01:29:12.042Z,100546.94
2023-02-19T01:31:38.930Z,100539.84
2023-02-19T01:34:06.411Z,100538.13
2023-02-19T01:36:33.092Z,100546.94
2023-02-19T01:38:59.819Z,100539.94
2023-02-19T01:41:26.351Z,100542.56
2023-02-19T01:44:01.981Z,100549.63
2023-02-19T01:46:29.129Z,100560.25
2023-02-19T01:48:55.769Z,100550.53
2023-02-19T01:51:22.300Z,100562.87
2023-02-19T01:53:55.300Z,100543.53
2023-02-19T01:56:21.788Z,100538.31
2023-02-19T01:58:48.226Z,100539.22
2023-02-19T02:01:14.820Z,100553.31
2023-02-19T02:03:41.706Z,100550.66
2023-02-19T02:06:09.184Z,100541.00
2023-02-19T02:08:54.374Z,100522.53
2023-02-19T02:11:20.824Z,100528.66
2023-02-19T02:13:47.304Z,100527.78
2023-02-19T02:16:17.767Z,100529.53
2023-02-19T02:18:48.019Z,100542.75
2023-02-19T02:21:26.105Z,100529.53
2023-02-19T02:24:07.969Z,100529.53
2023-02-19T02:26:52.642Z,100508.47
2023-02-19T02:29:26.440Z,100511.13
2023-02-19T02:31:59.547Z,100516.41
2023-02-19T02:34:37.993Z,100513.75
2023-02-19T02:37:04.375Z,100508.53
2023-02-19T02:39:30.894Z,100500.66
2023-02-19T02:42:16.437Z,100512.03
2023-02-19T02:45:02.895Z,100514.69
2023-02-19T02:47:42.806Z,100518.25
2023-02-19T02:50:09.525Z,100525.25
2023-02-19T02:52:55.507Z,100530.59
2023-02-19T02:55:22.112Z,100529.72
2023-02-19T02:57:48.500Z,100532.34
2023-02-19T03:00:14.931Z,100530.62
2023-02-19T03:02:41.596Z,100539.41
2023-02-19T03:05:29.651Z,100536.84
2023-02-19T03:08:04.806Z,100544.78
2023-02-19T03:10:36.630Z,100548.28
2023-02-19T03:13:21.968Z,100537.78
2023-02-19T03:16:08.342Z,100543.97
2023-02-19T03:18:53.405Z,100533.41
2023-02-19T03:21:19.841Z,100542.22
2023-02-19T03:24:05.029Z,100536.06
2023-02-19T03:26:31.691Z,100535.22
2023-02-19T03:29:17.038Z,100544.00
2023-02-19T03:31:43.552Z,100542.28
2023-02-19T03:34:10.736Z,100553.78
2023-02-19T03:36:42.282Z,100545.00
2023-02-19T03:39:09.238Z,100545.00
2023-02-19T03:41:35.670Z,100545.84
2023-02-19T03:44:02.067Z,100548.50
2023-02-19T03:46:28.510Z,100552.06
2023-02-19T03:49:05.714Z,100552.06
2023-02-19T03:51:39.081Z,100563.47
2023-02-19T03:54:17.668Z,100554.72
2023-02-19T03:56:45.791Z,100560.88
2023-02-19T03:59:17.222Z,100553.88
2023-02-19T04:01:49.544Z,100542.34
2023-02-19T04:04:17.246Z,100541.00
2023-02-19T04:06:43.696Z,100543.06
2023-02-19T04:09:10.671Z,100539.84
2023-02-19T04:11:37.167Z,100543.72
2023-02-19T04:14:06.388Z,100540.56
2023-02-19T04:16:32.940Z,100553.16
2023-02-19T04:19:00.401Z,100553.22
2023-02-19T04:21:26.864Z,100549.78
2023-02-19T04:23:53.316Z,100547.28
2023-02-19T04:26:20.202Z,100549.37
2023-02-19T04:28:46.624Z,100553.25
2023-02-19T04:31:13.428Z,100545.75
2023-02-19T04:33:40.124Z,100551.53
2023-02-19T04:36:07.239Z,100547.75
2023-02-19T04:38:33.644Z,100551.84
2023-02-19T04:41:00.074Z,100542.81
2023-02-19T04:43:26.479Z,100545.28
2023-02-19T04:45:52.915Z,100553.03
2023-02-19T04:48:19.323Z,100537.03
2023-02-19T04:50:45.728Z,100529.91
2023-02-19T04:53:12.118Z,100543.00
2023-02-19T04:55:38.864Z,100542.94
2023-02-19T04:58:05.396Z,100551.59
2023-02-19T05:00:31.842Z,100537.38
2023-02-19T05:02:58.280Z,100532.91
2023-02-19T05:05:24.690Z,100531.03
2023-02-19T05:07:51.116Z,100527.50
2023-02-19T05:10:17.574Z,100529.13
2023-02-19T05:12:43.966Z,100525.50
2023-02-19T05:15:10.387Z,100535.94
2023-02-19T05:17:36.937Z,100537.53
2023-02-19T05:20:03.438Z,100532.94
2023-02-19T05:22:29.944Z,100536.34
2023-02-19T05:24:56.344Z,100535.25
2023-02-19T05:27:22.736Z,100542.19
2023-02-19T05:29:49.146Z,100555.34
2023-02-19T05:32:15.598Z,100547.28
2023-02-19T05:34:41.996Z,100551.53
2023-02-19T05:37:08.516Z,100541.78
2023-02-19T05:39:34.936Z,100545.19
2023-02-19T05:42:01.368Z,100534.50
2023-02-19T05:44:27.753Z,100544.12
2023-02-19T05:46:54.176Z,100532.56
2023-02-19T05:49:20.568Z,100527.19
2023-02-19T05:51:46.985Z,100535.09
2023-02-19T05:54:13.416Z,100534.16
2023-02-19T05:56:40.169Z,100535.72
2023-02-19T05:59:08.034Z,100545.41
2023-02-19T06:01:34.590Z,100546.19
2023-02-19T06:04:01.032Z,100552.31
2023-02-19T06:06:27.559Z,100557.53
2023-02-19T06:08:54.191Z,100552.13
2023-02-19T06:11:20.624Z,100556.44
2023-02-19T06:13:47.096Z,100561.69
2023-02-19T06:16:13.662Z,100563.34
2023-02-19T06:18:41.319Z,100557.94
2023-02-19T06:21:08.539Z,100557.00
2023-02-19T06:23:35.156Z,100541.87
2023-02-19T06:26:05.563Z,100539.22
2023-02-19T06:28:31.976Z,100531.19
2023-02-19T06:30:58.674Z,100524.87
2023-02-19T06:33:26.230Z,100523.00
2023-02-19T06:35:52.650Z,100527.38
2023-02-19T06:38:20.828Z,100533.53
2023-02-19T06:40:47.213Z,100526.38
2023-02-19T06:43:13.618Z,100519.25
2023-02-19T06:45:40.025Z,100520.88
2023-02-19T06:48:06.741Z,100513.72
2023-02-19T06:50:33.172Z,100519.03
2023-02-19T06:52:59.567Z,100515.44
2023-02-19T06:55:26.004Z,100525.91
2023-02-19T06:57:52.426Z,100532.09
2023-02-19T07:00:18.834Z,100532.94
2023-02-19T07:02:45.234Z,100526.59
2023-02-19T07:05:11.632Z,100523.94
2023-02-19T07:07:38.125Z,100528.34
2023-02-19T07:10:04.684Z,100534.44
2023-02-19T07:12:31.133Z,100528.19
2023-02-19T07:14:57.572Z,100524.59
2023-02-19T07:17:24.017Z,100534.31
2023-02-19T07:19:50.440Z,100530.69
2023-02-19T07:22:16.844Z,100531.56
2023-02-19T07:24:43.305Z,100535.06
2023-02-19T07:27:09.727Z,100529.66
2023-02-19T07:29:36.124Z,100515.47
2023-02-19T07:32:02.691Z,100519.00
2023-02-19T07:34:29.108Z,100510.06
2023-02-19T07:36:55.493Z,100522.41
2023-02-19T07:39:21.912Z,100513.50
2023-02-19T07:41:48.321Z,100508.19
2023-02-19T07:44:16.723Z,100505.47
2023-02-19T07:46:44.036Z,100503.69
2023-02-19T07:49:10.504Z,100508.13
2023-02-19T07:51:39.846Z,100504.53
2023-02-19T07:54:06.471Z,100515.16
2023-02-19T07:56:32.911Z,100522.28
2023-02-19T07:58:59.979Z,100523.12
2023-02-19T08:01:44.896Z,100526.66
2023-02-19T08:04:11.919Z,100534.63
2023-02-19T08:06:38.330Z,100533.75
2023-02-19T08:09:05.098Z,100536.41
2023-02-19T08:11:50.171Z,100546.97
2023-02-19T08:14:16.586Z,100547.91
2023-02-19T08:16:50.457Z,100545.34
2023-02-19T08:19:16.914Z,100556.72
2023-02-19T08:21:43.468Z,100559.37
2023-02-19T08:24:09.960Z,100552.34
2023-02-19T08:26:36.923Z,100554.91
2023-02-19T08:29:04.008Z,100553.03
2023-02-19T08:31:30.534Z,100565.38
2023-02-19T08:33:57.055Z,100572.34
2023-02-19T08:36:23.478Z,100569.50
2023-02-19T08:38:49.916Z,100567.56
2023-02-19T08:41:16.352Z,100556.88
2023-02-19T08:43:42.865Z,100541.63
2023-02-19T08:46:10.168Z,100536.25
2023-02-19T08:48:36.906Z,100543.09
2023-02-19T08:51:04.164Z,100536.78
2023-02-19T08:53:30.987Z,100540.22
2023-02-19T08:55:57.382Z,100539.28
2023-02-19T08:58:26.216Z,100533.97
2023-02-19T09:00:52.823Z,100539.22
2023-02-19T09:03:19.243Z,100537.56
2023-02-19T09:05:46.925Z,100535.94
2023-02-19T09:08:13.369Z,100535.34
2023-02-19T09:10:39.959Z,100545.31
2023-02-19T09:13:06.381Z,100536.84
2023-02-19T09:15:33.463Z,100541.63
2023-02-19T09:18:00.019Z,100538.34
2023-02-19T09:20:26.516Z,100526.31
2023-02-19T09:22:56.707Z,100527.56
2023-02-19T09:25:23.301Z,100527.00
2023-02-19T09:27:49.688Z,100531.81
2023-02-19T09:30:16.115Z,100532.97
2023-02-19T09:32:42.561Z,100527.97
2023-02-19T09:35:09.006Z,100530.00
2023-02-19T09:37:35.535Z,100521.34
2023-02-19T09:40:01.985Z,100521.66
2023-02-19T09:42:29.828Z,100521.81
2023-02-19T09:44:56.446Z,100514.94
2023-02-19T09:47:23.848Z,100512.50
2023-02-19T09:49:54.374Z,100509.16
2023-02-19T09:52:25.708Z,100502.28
2023-02-19T09:54:52.296Z,100507.72
2023-02-19T09:57:19.297Z,100502.53
2023-02-19T09:59:45.853Z,100505.28
2023-02-19T10:02:19.196Z,100494.75
2023-02-19T10:04:46.043Z,100492.22
2023-02-19T10:07:16.460Z,100481.78
2023-02-19T10:09:44.544Z,100484.47
2023-02-19T10:12:18.846Z,100475.53
2023-02-19T10:14:46.625Z,100479.75
2023-02-19T10:17:26.195Z,100469.94
2023-02-19T10:19:52.831Z,100466.28
2023-02-19T10:22:19.569Z,100455.66
2023-02-19T10:24:46.079Z,100460.09
2023-02-19T10:27:13.240Z,100467.19
2023-02-19T10:29:39.670Z,100446.91
2023-02-19T10:32:18.784Z,100438.09
2023-02-19T10:34:45.292Z,100431.06
2023-02-19T10:37:15.666Z,100428.56
2023-02-19T10:39:45.996Z,100415.47
2023-02-19T10:42:16.068Z,100414.72
2023-02-19T10:44:43.107Z,100413.06
2023-02-19T10:47:09.483Z,100400.84
2023-02-19T10:49:37.261Z,100407.94
2023-02-19T10:52:17.701Z,100397.38
2023-02-19T10:54:44.884Z,100398.31
2023-02-19T10:57:25.833Z,100386.00
2023-02-19T10:59:53.399Z,100378.97
2023-02-19T11:02:20.220Z,100371.03
2023-02-19T11:05:02.582Z,100371.94
2023-02-19T11:07:29.058Z,100360.47
2023-02-19T11:09:55.469Z,100364.06
2023-02-19T11:12:25.780Z,100353.44
2023-02-19T11:14:52.216Z,100340.19
2023-02-19T11:17:27.790Z,100331.47
2023-02-19T11:19:58.308Z,100333.25
2023-02-19T11:22:40.547Z,100329.72
2023-02-19T11:25:09.956Z,100348.38
2023-02-19T11:27:36.429Z,100334.25
2023-02-19T11:30:21.337Z,100323.78
2023-02-19T11:32:50.598Z,100317.63
2023-02-19T11:35:18.391Z,100319.50
2023-02-19T11:37:55.533Z,100310.69
2023-02-19T11:40:22.485Z,100303.72
2023-02-19T11:42:54.281Z,100307.31
2023-02-19T11:45:33.074Z,100305.66
2023-02-19T11:48:05.003Z,100305.75
2023-02-19T11:50:31.377Z,100289.97
2023-02-19T11:53:03.863Z,100277.66
2023-02-19T11:55:33.386Z,100285.69
2023-02-19T11:58:18.012Z,100283.12
2023-02-19T12:01:03.219Z,100283.25
2023-02-19T12:03:34.696Z,100276.25
2023-02-19T12:06:10.298Z,100276.38
2023-02-19T12:08:55.734Z,100272.03
2023-02-19T12:11:25.235Z,100269.38
2023-02-19T12:14:06.921Z,100273.88
2023-02-19T12:16:56.639Z,100263.34
2023-02-19T12:19:35.581Z,100269.59
2023-02-19T12:22:05.060Z,100275.81
2023-02-19T12:24:35.600Z,100267.06
2023-02-19T12:27:17.415Z,100264.47
2023-02-19T12:29:43.986Z,100261.03
2023-02-19T12:32:22.732Z,100261.94
2023-02-19T12:34:49.143Z,100260.31
2023-02-19T12:37:21.495Z,100267.41
2023-02-19T12:39:51.860Z,100283.31
2023-02-19T12:42:37.475Z,100281.66
2023-02-19T12:45:08.482Z,100290.53
2023-02-19T12:47:36.899Z,100289.69
2023-02-19T12:50:22.511Z,100284.37
2023-02-19T12:52:52.706Z,100312.72
2023-02-19T12:55:22.970Z,100353.41
2023-02-19T12:57:49.392Z,100323.47
2023-02-19T13:00:34.419Z,100324.41
2023-02-19T13:03:20.772Z,100327.12
2023-02-19T13:05:47.167Z,100332.50
2023-02-19T13:08:15.507Z,100307.84
2023-02-19T13:10:41.996Z,100308.78
2023-02-19T13:13:12.673Z,100305.28
2023-02-19T13:15:43.277Z,100314.16
2023-02-19T13:18:13.914Z,100302.72
2023-02-19T13:20:41.355Z,100301.84
2023-02-19T13:23:38.799Z,100308.00
2023-02-19T13:26:14.406Z,100318.59
2023-02-19T13:28:54.053Z,100316.03
2023-02-19T13:31:20.541Z,100298.41
2023-02-19T13:33:52.465Z,100308.13
2023-02-19T13:36:20.985Z,100307.34
2023-02-19T13:38:47.475Z,100298.56
2023-02-19T13:41:17.823Z,100295.06
2023-02-19T13:43:47.015Z,100307.41
2023-02-19T13:46:14.259Z,100316.28
2023-02-19T13:48:41.070Z,100341.91
2023-02-19T13:51:17.196Z,100346.44
2023-02-19T13:53:44.763Z,100337.69
2023-02-19T13:56:29.707Z,100335.03
2023-02-19T13:59:01.554Z,100351.00
2023-02-19T14:01:54.690Z,100363.47
2023-02-19T14:04:39.710Z,100359.94
2023-02-19T14:07:06.136Z,100362.56
2023-02-19T14:09:43.857Z,100360.00
2023-02-19T14:12:10.425Z,100380.41
2023-02-19T14:14:40.185Z,100386.56
2023-02-19T14:17:09.698Z,100397.19
2023-02-19T14:19:42.131Z,100389.34
2023-02-19T14:22:27.406Z,100399.94
2023-02-19T14:24:53.817Z,100409.75
2023-02-19T14:27:20.792Z,100412.38
2023-02-19T14:29:47.205Z,100423.03
2023-02-19T14:32:16.732Z,100419.53
2023-02-19T14:34:44.682Z,100435.47
2023-02-19T14:37:18.487Z,100435.47
2023-02-19T14:39:45.364Z,100432.03
2023-02-19T14:42:19.700Z,100440.03
2023-02-19T14:44:53.095Z,100448.91
2023-02-19T14:47:20.128Z,100452.50
2023-02-19T14:49:49.701Z,100453.34
2023-02-19T14:52:24.854Z,100452.50
2023-02-19T14:54:55.439Z,100449.84
2023-02-19T14:57:26.174Z,100448.19
2023-02-19T14:59:58.300Z,100452.53
2023-02-19T15:02:26.167Z,100439.38
2023-02-19T15:04:52.722Z,100453.53
2023-02-19T15:07:20.576Z,100456.25
2023-02-19T15:09:47.925Z,100460.66
2023-02-19T15:12:21.376Z,100448.38
2023-02-19T15:14:47.936Z,100465.19
2023-02-19T15:17:30.432Z,100468.75
2023-02-19T15:19:57.129Z,100482.94
2023-02-19T15:22:24.452Z,100468.00
2023-02-19T15:24:50.858Z,100479.47
2023-02-19T15:27:26.351Z,100477.75
2023-02-19T15:29:53.680Z,100481.31
2023-02-19T15:32:22.708Z,100471.66
2023-02-19T15:35:02.955Z,100458.44
2023-02-19T15:37:32.080Z,100457.63
2023-02-19T15:39:59.032Z,100459.41
2023-02-19T15:42:25.511Z,100458.53
2023-02-19T15:45:03.225Z,100447.13
2023-02-19T15:47:35.679Z,100445.38
2023-02-19T15:50:13.335Z,100442.78
2023-02-19T15:52:45.931Z,100448.94
2023-02-19T15:55:17.152Z,100461.31
2023-02-19T15:57:44.392Z,100459.59
2023-02-19T16:00:13.079Z,100470.19
2023-02-19T16:02:39.939Z,100473.75
2023-02-19T16:05:13.415Z,100471.09
2023-02-19T16:07:39.880Z,100494.06
2023-02-19T16:10:18.065Z,100483.50
2023-02-19T16:12:44.513Z,100488.78
2023-02-19T16:15:20.074Z,100495.00
2023-02-19T16:17:46.501Z,100491.56
2023-02-19T16:20:20.967Z,100504.81
2023-02-19T16:22:47.357Z,100502.19
2023-02-19T16:25:42.027Z,100503.12
2023-02-19T16:28:14.567Z,100517.22
2023-02-19T16:30:41.090Z,100510.22
2023-02-19T16:33:20.796Z,100513.78
2023-02-19T16:35:48.307Z,100516.44
2023-02-19T16:38:15.238Z,100522.66
2023-02-19T16:40:55.251Z,100534.12
2023-02-19T16:43:27.781Z,100552.66
2023-02-19T16:45:54.214Z,100554.53
2023-02-19T16:48:21.309Z,100551.94
2023-02-19T16:50:47.701Z,100543.16
2023-02-19T16:53:18.494Z,100543.16
2023-02-19T16:55:44.905Z,100525.53
2023-02-19T16:58:11.305Z,100522.88
2023-02-19T17:00:37.712Z,100529.94
2023-02-19T17:03:17.445Z,100534.38
2023-02-19T17:05:43.883Z,100541.47
2023-02-19T17:08:29.635Z,100553.91
2023-02-19T17:10:56.331Z,100554.75
2023-02-19T17:13:22.775Z,100558.34
2023-02-19T17:15:49.249Z,100553.06
2023-02-19T17:18:15.704Z,100551.28
2023-02-19T17:20:42.222Z,100559.22
2023-02-19T17:23:08.695Z,100554.00
2023-02-19T17:25:35.163Z,100551.38
2023-02-19T17:28:01.613Z,100547.94
2023-02-19T17:30:33.847Z,100558.50
2023-02-19T17:33:00.375Z,100564.69
2023-02-19T17:35:26.836Z,100583.28
2023-02-19T17:37:53.587Z,100572.72
2023-02-19T17:40:31.875Z,100586.00
2023-02-19T17:42:58.959Z,100581.56
2023-02-19T17:45:25.399Z,100591.34
2023-02-19T17:47:51.905Z,100609.06
2023-02-19T17:50:19.569Z,100605.59
2023-02-19T17:52:46.031Z,100604.72
2023-02-19T17:55:12.776Z,100614.44
2023-02-19T17:57:39.200Z,100620.72
2023-02-19T18:00:06.128Z,100626.87
2023-02-19T18:02:32.524Z,100620.75
2023-02-19T18:04:58.921Z,100623.41
2023-02-19T18:07:25.417Z,100627.91
2023-02-19T18:09:51.956Z,100628.00
2023-02-19T18:12:18.373Z,100628.13
2023-02-19T18:14:47.865Z,100630.78
2023-02-19T18:17:14.862Z,100645.81
2023-02-19T18:19:42.907Z,100652.91
2023-02-19T18:22:09.364Z,100660.91
2023-02-19T18:24:35.967Z,100664.47
2023-02-19T18:27:02.392Z,100666.25
2023-02-19T18:29:30.366Z,100675.94
2023-02-19T18:31:57.156Z,100681.22
2023-02-19T18:34:23.619Z,100691.81
2023-02-19T18:36:50.135Z,100693.66
2023-02-19T18:39:16.613Z,100704.22
2023-02-19T18:41:46.421Z,100708.72
2023-02-19T18:44:12.801Z,100721.06
2023-02-19T18:46:39.220Z,100718.47
2023-02-19T18:49:05.654Z,100738.75
2023-02-19T18:51:32.082Z,100733.41
2023-02-19T18:54:01.678Z,100742.22
2023-02-19T18:56:29.493Z,100750.25
2023-02-19T18:58:55.906Z,100764.34
2023-02-19T19:01:22.415Z,100774.09
2023-02-19T19:03:48.819Z,100777.66
2023-02-19T19:06:15.218Z,100780.38
2023-02-19T19:08:41.726Z,100777.72
2023-02-19T19:11:08.490Z,100783.06
2023-02-19T19:13:34.892Z,100783.97
2023-02-19T19:16:01.308Z,100787.59
2023-02-19T19:18:27.961Z,100773.50
2023-02-19T19:20:56.675Z,100771.78
2023-02-19T19:23:23.109Z,100761.22
2023-02-19T19:25:49.520Z,100770.00
2023-02-19T19:28:16.000Z,100755.78
2023-02-19T19:30:42.557Z,100752.22
2023-02-19T19:33:09.004Z,100747.84
2023-02-19T19:35:35.424Z,100744.28
2023-02-19T19:38:01.868Z,100738.97
2023-02-19T19:40:28.378Z,100755.72
2023-02-19T19:42:54.874Z,100762.78
2023-02-19T19:45:21.379Z,100757.50
2023-02-19T19:47:48.762Z,100778.66
2023-02-19T19:50:15.716Z,100782.25
2023-02-19T19:52:42.221Z,100783.09
2023-02-19T19:55:08.741Z,100778.78
2023-02-19T19:57:35.156Z,100790.28
2023-02-19T20:00:01.536Z,100785.87
2023-02-19T20:02:28.066Z,100797.38
2023-02-19T20:04:54.550Z,100799.16
2023-02-19T20:07:21.061Z,100815.09
2023-02-19T20:09:48.317Z,100816.91
2023-02-19T20:12:14.938Z,100827.47
2023-02-19T20:14:43.364Z,100847.81
2023-02-19T20:17:09.799Z,100854.06
2023-02-19T20:19:36.232Z,100869.09
2023-02-19T20:22:02.653Z,100863.87
2023-02-19T20:24:29.112Z,100857.69
2023-02-19T20:26:58.575Z,100878.81
2023-02-19T20:29:29.075Z,100889.41
2023-02-19T20:31:56.547Z,100894.72
2023-02-19T20:34:23.238Z,100900.06
2023-02-19T20:36:49.752Z,100908.88
2023-02-19T20:39:16.675Z,100922.09
2023-02-19T20:41:46.551Z,100923.00
2023-02-19T20:44:13.112Z,100923.03
2023-02-19T20:46:47.124Z,100937.22
2023-02-19T20:49:13.727Z,100932.84
2023-02-19T20:51:44.272Z,100945.22
2023-02-19T20:54:10.677Z,100943.41
2023-02-19T20:56:37.113Z,100966.31
2023-02-19T20:59:03.567Z,100958.34
2023-02-19T21:01:30.152Z,100954.84
2023-02-19T21:03:56.566Z,100957.50
2023-02-19T21:06:23.048Z,100963.78
2023-02-19T21:08:49.501Z,100954.94
2023-02-19T21:11:15.959Z,100962.91
2023-02-19T21:13:42.698Z,100954.16
2023-02-19T21:16:09.236Z,100962.06
2023-02-19T21:18:35.787Z,100963.84
2023-02-19T21:21:02.198Z,100965.63
2023-02-19T21:23:28.620Z,100961.25
2023-02-19T21:25:55.026Z,100968.34
2023-02-19T21:28:21.449Z,100978.06
2023-02-19T21:30:47.844Z,100982.47
2023-02-19T21:33:14.552Z,100975.47
2023-02-19T21:35:40.930Z,100975.41
2023-02-19T21:38:07.413Z,100986.84
2023-02-19T21:40:34.138Z,100982.47
2023-02-19T21:43:00.588Z,100980.75
2023-02-19T21:45:27.081Z,100989.63
2023-02-19T21:47:55.043Z,100975.47
2023-02-19T21:50:21.857Z,100978.09
2023-02-19T21:52:48.314Z,100983.34
2023-02-19T21:55:14.786Z,100986.84
2023-02-19T21:57:41.328Z,100977.16
2023-02-19T22:00:08.494Z,100977.19
2023-02-19T22:02:35.042Z,100980.69
2023-02-19T22:05:02.600Z,100970.09
2023-02-19T22:07:30.634Z,100974.59
2023-02-19T22:09:57.037Z,100967.62
2023-02-19T22:12:23.457Z,100980.75
2023-02-19T22:14:49.978Z,100984.34
2023-02-19T22:17:16.398Z,100992.31
2023-02-19T22:19:42.860Z,100980.94
2023-02-19T22:22:09.298Z,100995.12
2023-02-19T22:24:35.711Z,100993.34
2023-02-19T22:27:11.244Z,101001.28
2023-02-19T22:29:37.723Z,101009.22
2023-02-19T22:32:13.290Z,101006.50
2023-02-19T22:34:42.718Z,101011.78
2023-02-19T22:37:09.507Z,101019.78
2023-02-19T22:39:36.392Z,101026.00
2023-02-19T22:42:02.878Z,101032.19
2023-02-19T22:44:29.390Z,101040.16
2023-02-19T22:46:56.145Z,101044.59
2023-02-19T22:49:22.793Z,101044.66
2023-02-19T22:52:09.505Z,101052.69
2023-02-19T22:54:36.173Z,101050.97
2023-02-19T22:57:02.592Z,101056.31
2023-02-19T22:59:28.993Z,101061.59
2023-02-19T23:01:57.750Z,101073.03
2023-02-19T23:04:24.458Z,101076.63
2023-02-19T23:06:51.211Z,101079.34
2023-02-19T23:09:19.335Z,101093.47
2023-02-19T23:11:45.870Z,101083.81
2023-02-19T23:14:12.315Z,101094.44
2023-02-19T23:16:38.977Z,101101.44
2023-02-19T23:19:05.912Z,101105.91
2023-02-19T23:21:32.735Z,101103.28
2023-02-19T23:23:59.303Z,101115.63
2023-02-19T23:26:25.866Z,101118.25
2023-02-19T23:28:52.294Z,101122.63
2023-02-19T23:31:19.023Z,101136.69
2023-02-19T23:33:45.528Z,101132.31
2023-02-19T23:36:12.277Z,101142.88
2023-02-19T23:38:38.872Z,101131.50
2023-02-19T23:41:08.724Z,101136.81
2023-02-19T23:43:35.154Z,101148.22
2023-02-19T23:46:01.863Z,101149.09
2023-02-19T23:48:28.324Z,101161.47
2023-02-19T23:50:54.765Z,101158.03
2023-02-19T23:53:21.183Z,101170.38
2023-02-19T23:55:47.637Z,101164.22
2023-02-19T23:58:14.112Z,101175.69
